Detalii statie AGRICHIM STEFAN CEL MARE [0000198F]

Toti senzorii

Date Temperatura solului [C]Precipitatii [mm]Voltaj baterie [mV]HC Air temperature [C]HC Relative humidity [%]Punctul de roua [C]
medieminmaxsumaultimamedieminmaxmediemediemin
2019-04-19 19:00:00 10.9 10.8 11.1 0 6992 7.93 6.94 8.84 0 0 0
2019-04-19 20:00:00 10.7 10.6 11 0 6922 6.71 6.3 7.06 0 0 0
2019-04-19 21:00:00 10.5 10.4 10.7 0 6894 6.19 5.91 6.49 0 0 0
2019-04-19 22:00:00 10.3 10.1 10.5 0 6874 5.88 5.69 6.36 0 0 0
2019-04-19 23:00:00 10.1 10 10.2 0 6854 5.73 5.03 6.6 0 0 0
2019-04-20 00:00:00 9.8 9.8 10 0 6854 4.77 4.47 4.98 0 0 0
2019-04-20 01:00:00 9.7 9.5 9.8 0 6834 4.64 4.32 4.95 0 0 0
2019-04-20 02:00:00 9.5 9.4 9.6 0 6826 4.93 4.66 5.11 0 0 0
2019-04-20 03:00:00 9.3 9.2 9.5 0 6826 4.94 4.36 5.28 0 0 0
2019-04-20 04:00:00 9 8.9 9.2 0 6816 4.06 3.79 4.52 0 0 0
2019-04-20 05:00:00 9 8.8 9.3 0 6816 3.42 3.2 3.89 0 0 0
2019-04-20 06:00:00 8.8 8.7 8.9 0 6806 3.14 2.6 3.65 0 0 0
2019-04-20 07:00:00 8.6 8.6 8.8 0 6884 3.53 2.67 4.43 0 0 0
2019-04-20 08:00:00 8.5 8.4 8.7 0 6914 5.03 4.36 6.26 0 0 0
2019-04-20 09:00:00 8.4 8.2 8.6 0 7030 8.36 6.37 9.83 0 0 0
2019-04-20 10:00:00 8.3 8.2 8.5 0 7254 11.09 10.11 12.14 0 0 0
2019-04-20 11:00:00 8.3 8.2 8.5 0 7264 13.35 12.23 14.27 0 0 0
2019-04-20 12:00:00 8.5 8.3 8.7 0 7254 14.71 14.01 15.59 0 0 0
2019-04-20 13:00:00 9.1 8.8 9.6 0.2 7216 14.59 13.33 16.09 0 0 0
2019-04-20 14:00:00 9.8 9.6 10.1 0 7196 15.02 13.99 15.78 0 0 0
2019-04-20 15:00:00 10.3 10.1 10.5 0 7264 14.93 13.84 16.57 0 0 0
2019-04-20 16:00:00 10.7 10.5 10.9 0 7148 15.16 14.16 16.14 0 0 0
2019-04-20 17:00:00 11 10.8 11.3 0 7246 13.73 13.48 14.01 0 0 0
2019-04-20 18:00:00 11.1 11.1 11.3 0 7030 13.51 13.07 14.05 0 0 0
2019-04-20 19:00:00 11 10.9 11.3 0 6962 11.13 9.48 12.97 0 0 0
2019-04-20 20:00:00 10.9 10.8 11.2 0 6904 8 6.84 9.33 0 0 0
2019-04-20 21:00:00 10.6 10.6 10.8 0 6844 6.16 5.75 6.8 0.83 0
2019-04-20 22:00:00 10.4 10.3 10.7 0 6834 5.21 4.82 5.77 0 0 0
2019-04-20 23:00:00 10.1 9.9 10.3 0 6826 4.78 4.45 5.13 0 0 0
2019-04-21 00:00:00 9.8 9.7 9.9 0 6826 4.54 4.39 4.77 0 0 0
2019-04-21 01:00:00 9.6 9.4 9.7 0 6796 3.95 3.14 4.64 0 0 0
2019-04-21 02:00:00 9.4 9.2 9.6 0 6806 3.13 2.83 3.26 0 0 0
2019-04-21 03:00:00 9.1 8.9 9.2 0 6806 2.59 1.92 2.94 0 0 0
2019-04-21 04:00:00 8.8 8.7 9 0 6796 2.29 1.89 2.69 0 0 0
2019-04-21 05:00:00 8.6 8.6 8.9 0 6786 1.64 0.92 2.36 0 0 0
2019-04-21 06:00:00 8.4 8.1 8.6 0 6786 1.25 0.7 2.11 0 0 0
2019-04-21 07:00:00 8.3 8.2 8.6 0 6894 3.58 2.32 5.26 0 0 0
2019-04-21 08:00:00 8.2 8.2 8.3 0 7000 6.76 5.53 7.9 0 0 0
2019-04-21 09:00:00 8.2 8.2 8.5 0 7254 8.97 8.02 10.13 0 0 0
2019-04-21 10:00:00 8.4 8.2 8.7 0 7264 11.46 10.75 12.33 0 0 0
2019-04-21 11:00:00 8.7 8.6 8.9 0 7254 14.63 12.78 15.76 0 0 0
2019-04-21 12:00:00 9 8.8 9.3 0 7264 16.18 15.24 17.01 0 0 0
2019-04-21 13:00:00 9.8 9.5 10.3 0 7264 16.49 15.81 16.83 0 0 0
2019-04-21 14:00:00 10.5 10.2 11 0 7264 17.05 16.1 17.98 0 0 0
2019-04-21 15:00:00 11.2 10.9 11.6 0 7158 17.4 16.12 18.52 0 0 0
2019-04-21 16:00:00 11.8 11.5 12.1 0 7158 16.15 15.44 17.24 0 0 0
2019-04-21 17:00:00 12.1 12 12.2 0.2 7060 14.44 12.21 15.52 0 0 0
2019-04-21 18:00:00 12.1 12 12.2 0.2 7118 12.44 11.73 12.85 0 0 0